sensor_id;sensor_type;location;lat;lon;timestamp;pressure;altitude;pressure_sealevel;temperature;humidity
63665;BME280;49820;33.966;73.390;2022-08-19T00:00:54;78366.56;;;15.45;100.00
63665;BME280;49820;33.966;73.390;2022-08-19T00:04:55;78394.16;;;15.60;100.00
63665;BME280;49820;33.966;73.390;2022-08-19T00:08:38;78483.81;;;16.17;100.00
63665;BME280;49820;33.966;73.390;2022-08-19T00:13:06;78367.44;;;15.24;100.00
63665;BME280;49820;33.966;73.390;2022-08-19T00:17:25;78469.09;;;16.14;100.00
63665;BME280;49820;33.966;73.390;2022-08-19T00:57:16;78382.94;;;16.27;100.00
63665;BME280;49820;33.966;73.390;2022-08-19T01:06:27;78489.72;;;17.61;100.00
63665;BME280;49820;33.966;73.390;2022-08-19T01:24:50;78490.56;;;19.00;100.00
63665;BME280;49820;33.966;73.390;2022-08-19T01:33:21;78490.97;;;19.18;100.00
63665;BME280;49820;33.966;73.390;2022-08-19T01:42:10;78409.09;;;19.40;100.00
63665;BME280;49820;33.966;73.390;2022-08-19T01:46:29;78457.25;;;20.10;100.00
63665;BME280;49820;33.966;73.390;2022-08-19T01:49:52;78491.75;;;20.35;100.00
63665;BME280;49820;33.966;73.390;2022-08-19T02:25:39;78497.38;;;23.31;98.62
63665;BME280;49820;33.966;73.390;2022-08-19T02:43:07;78496.75;;;23.30;82.35
63665;BME280;49820;33.966;73.390;2022-08-19T02:45:44;78469.44;;;23.11;95.98
63665;BME280;49820;33.966;73.390;2022-08-19T02:48:57;78507.31;;;23.75;86.79
63665;BME280;49820;33.966;73.390;2022-08-19T02:52:26;78516.19;;;23.05;88.42
63665;BME280;49820;33.966;73.390;2022-08-19T02:56:50;78520.84;;;21.91;95.70
63665;BME280;49820;33.966;73.390;2022-08-19T03:09:59;78449.50;;;20.38;100.00
63665;BME280;49820;33.966;73.390;2022-08-19T03:13:11;78522.59;;;20.86;100.00
63665;BME280;49820;33.966;73.390;2022-08-19T03:16:05;78523.84;;;20.77;100.00
63665;BME280;49820;33.966;73.390;2022-08-19T03:28:06;78435.81;;;20.74;100.00
63665;BME280;49820;33.966;73.390;2022-08-19T03:32:56;78535.19;;;23.26;100.00
63665;BME280;49820;33.966;73.390;2022-08-19T03:36:20;78542.75;;;23.55;100.00
63665;BME280;49820;33.966;73.390;2022-08-19T03:39:42;78540.78;;;24.03;91.50
63665;BME280;49820;33.966;73.390;2022-08-19T03:57:14;78549.44;;;24.83;79.75
63665;BME280;49820;33.966;73.390;2022-08-19T04:15:26;78568.59;;;23.05;93.76
63665;BME280;49820;33.966;73.390;2022-08-19T04:41:31;78582.97;;;22.21;100.00
63665;BME280;49820;33.966;73.390;2022-08-19T04:45:07;78592.53;;;22.20;100.00
63665;BME280;49820;33.966;73.390;2022-08-19T04:52:12;78550.63;;;21.83;100.00
63665;BME280;49820;33.966;73.390;2022-08-19T04:56:40;78480.53;;;22.47;100.00
63665;BME280;49820;33.966;73.390;2022-08-19T05:12:50;78577.97;;;22.98;100.00
63665;BME280;49820;33.966;73.390;2022-08-19T05:16:37;78587.84;;;22.82;100.00
63665;BME280;49820;33.966;73.390;2022-08-19T05:20:50;78489.25;;;21.75;100.00
63665;BME280;49820;33.966;73.390;2022-08-19T05:24:23;78602.66;;;22.11;100.00
63665;BME280;49820;33.966;73.390;2022-08-19T05:40:33;78604.69;;;23.46;100.00
63665;BME280;49820;33.966;73.390;2022-08-19T05:44:10;78605.19;;;23.08;100.00
63665;BME280;49820;33.966;73.390;2022-08-19T05:47:59;78615.09;;;22.93;100.00
63665;BME280;49820;33.966;73.390;2022-08-19T06:51:47;78558.88;;;23.38;100.00
63665;BME280;49820;33.966;73.390;2022-08-19T06:55:58;78586.00;;;23.10;100.00
63665;BME280;49820;33.966;73.390;2022-08-19T07:00:09;78593.69;;;22.55;100.00
63665;BME280;49820;33.966;73.390;2022-08-19T07:08:32;78605.38;;;22.42;100.00
63665;BME280;49820;33.966;73.390;2022-08-19T07:35:05;78583.97;;;22.15;100.00
63665;BME280;49820;33.966;73.390;2022-08-19T07:55:50;78472.19;;;24.37;100.00
63665;BME280;49820;33.966;73.390;2022-08-19T08:03:59;78472.81;;;23.11;100.00
63665;BME280;49820;33.966;73.390;2022-08-19T08:07:51;78571.50;;;23.33;100.00
63665;BME280;49820;33.966;73.390;2022-08-19T08:11:48;78576.56;;;23.99;100.00
63665;BME280;49820;33.966;73.390;2022-08-19T08:24:30;78585.25;;;22.91;100.00
63665;BME280;49820;33.966;73.390;2022-08-19T08:37:33;78474.09;;;22.72;100.00
63665;BME280;49820;33.966;73.390;2022-08-19T08:53:20;78526.97;;;23.86;100.00
63665;BME280;49820;33.966;73.390;2022-08-19T09:29:31;78501.75;;;22.55;100.00
63665;BME280;49820;33.966;73.390;2022-08-19T10:00:37;78521.38;;;23.09;100.00
63665;BME280;49820;33.966;73.390;2022-08-19T11:00:03;78470.41;;;22.97;100.00
63665;BME280;49820;33.966;73.390;2022-08-19T11:35:33;78449.91;;;22.98;100.00
63665;BME280;49820;33.966;73.390;2022-08-19T11:44:34;78449.66;;;23.21;100.00
63665;BME280;49820;33.966;73.390;2022-08-19T12:11:09;78391.47;;;23.74;100.00
63665;BME280;49820;33.966;73.390;2022-08-19T12:24:05;78398.34;;;22.85;100.00
63665;BME280;49820;33.966;73.390;2022-08-19T13:07:29;78385.34;;;20.55;100.00
63665;BME280;49820;33.966;73.390;2022-08-19T13:21:03;78383.09;;;20.03;100.00
63665;BME280;49820;33.966;73.390;2022-08-19T13:47:16;78424.38;;;19.93;100.00
63665;BME280;49820;33.966;73.390;2022-08-19T14:00:43;78431.50;;;19.75;100.00
63665;BME280;49820;33.966;73.390;2022-08-19T14:20:53;78449.28;;;19.49;100.00
63665;BME280;49820;33.966;73.390;2022-08-19T14:23:39;78429.59;;;19.37;100.00
63665;BME280;49820;33.966;73.390;2022-08-19T14:26:28;78448.41;;;19.39;100.00
63665;BME280;49820;33.966;73.390;2022-08-19T14:29:25;78458.09;;;19.36;100.00
63665;BME280;49820;33.966;73.390;2022-08-19T14:32:04;78437.44;;;19.18;100.00
63665;BME280;49820;33.966;73.390;2022-08-19T14:35:01;78450.53;;;19.26;100.00
63665;BME280;49820;33.966;73.390;2022-08-19T14:37:33;78436.38;;;19.13;100.00
63665;BME280;49820;33.966;73.390;2022-08-19T14:40:27;78428.81;;;19.03;100.00
63665;BME280;49820;33.966;73.390;2022-08-19T14:43:30;78445.13;;;19.14;100.00
63665;BME280;49820;33.966;73.390;2022-08-19T14:46:35;78449.94;;;19.13;100.00
63665;BME280;49820;33.966;73.390;2022-08-19T14:49:39;78438.56;;;18.98;100.00
63665;BME280;49820;33.966;73.390;2022-08-19T14:52:33;78459.72;;;18.95;100.00
63665;BME280;49820;33.966;73.390;2022-08-19T14:55:04;78463.47;;;19.00;100.00
63665;BME280;49820;33.966;73.390;2022-08-19T14:57:53;78467.81;;;18.95;100.00
63665;BME280;49820;33.966;73.390;2022-08-19T15:00:51;78465.44;;;18.89;100.00
63665;BME280;49820;33.966;73.390;2022-08-19T15:03:42;78463.72;;;18.84;100.00
63665;BME280;49820;33.966;73.390;2022-08-19T15:06:33;78477.25;;;18.96;100.00
63665;BME280;49820;33.966;73.390;2022-08-19T15:09:38;78457.88;;;18.79;100.00
63665;BME280;49820;33.966;73.390;2022-08-19T15:12:29;78472.28;;;18.88;100.00
63665;BME280;49820;33.966;73.390;2022-08-19T15:19:13;78490.13;;;18.96;100.00
63665;BME280;49820;33.966;73.390;2022-08-19T15:22:19;78487.28;;;18.98;100.00
63665;BME280;49820;33.966;73.390;2022-08-19T15:25:24;78453.03;;;18.69;100.00
63665;BME280;49820;33.966;73.390;2022-08-19T15:28:30;78481.69;;;18.89;100.00
63665;BME280;49820;33.966;73.390;2022-08-19T15:31:24;78490.78;;;18.96;100.00
63665;BME280;49820;33.966;73.390;2022-08-19T15:34:30;78489.59;;;18.93;100.00
63665;BME280;49820;33.966;73.390;2022-08-19T15:37:35;78480.50;;;18.86;100.00
63665;BME280;49820;33.966;73.390;2022-08-19T15:40:07;78468.06;;;18.66;100.00
63665;BME280;49820;33.966;73.390;2022-08-19T15:43:41;78482.69;;;18.71;100.00
63665;BME280;49820;33.966;73.390;2022-08-19T15:46:50;78496.53;;;18.78;100.00
63665;BME280;49820;33.966;73.390;2022-08-19T15:49:54;78482.38;;;18.64;100.00
63665;BME280;49820;33.966;73.390;2022-08-19T15:53:04;78486.69;;;18.59;100.00
63665;BME280;49820;33.966;73.390;2022-08-19T15:56:10;78493.06;;;18.54;100.00
63665;BME280;49820;33.966;73.390;2022-08-19T15:59:14;78488.06;;;18.46;100.00
63665;BME280;49820;33.966;73.390;2022-08-19T16:02:20;78499.00;;;18.44;100.00
63665;BME280;49820;33.966;73.390;2022-08-19T16:05:27;78498.34;;;18.43;100.00
63665;BME280;49820;33.966;73.390;2022-08-19T16:08:54;78505.28;;;18.53;100.00
63665;BME280;49820;33.966;73.390;2022-08-19T16:11:43;78488.50;;;18.38;100.00
63665;BME280;49820;33.966;73.390;2022-08-19T16:14:48;78506.47;;;18.43;100.00
63665;BME280;49820;33.966;73.390;2022-08-19T16:17:54;78488.06;;;18.33;100.00
63665;BME280;49820;33.966;73.390;2022-08-19T16:20:51;78470.75;;;18.15;100.00
63665;BME280;49820;33.966;73.390;2022-08-19T16:23:25;78509.16;;;18.30;100.00
63665;BME280;49820;33.966;73.390;2022-08-19T16:26:16;78505.56;;;18.21;100.00
63665;BME280;49820;33.966;73.390;2022-08-19T16:29:21;78517.16;;;18.33;100.00
63665;BME280;49820;33.966;73.390;2022-08-19T16:32:26;78520.50;;;18.33;100.00
63665;BME280;49820;33.966;73.390;2022-08-19T16:35:15;78512.16;;;18.24;100.00
63665;BME280;49820;33.966;73.390;2022-08-19T16:38:01;78517.28;;;18.30;100.00
63665;BME280;49820;33.966;73.390;2022-08-19T16:40:52;78518.69;;;18.29;100.00
63665;BME280;49820;33.966;73.390;2022-08-19T16:43:57;78503.06;;;18.17;100.00
63665;BME280;49820;33.966;73.390;2022-08-19T16:47:02;78506.75;;;18.12;100.00
63665;BME280;49820;33.966;73.390;2022-08-19T16:50:07;78511.19;;;18.17;100.00
63665;BME280;49820;33.966;73.390;2022-08-19T16:53:13;78522.97;;;18.24;100.00
63665;BME280;49820;33.966;73.390;2022-08-19T16:56:02;78532.63;;;18.21;100.00
63665;BME280;49820;33.966;73.390;2022-08-19T16:59:07;78519.72;;;18.09;100.00
63665;BME280;49820;33.966;73.390;2022-08-19T17:02:13;78528.19;;;18.16;100.00
63665;BME280;49820;33.966;73.390;2022-08-19T17:05:00;78521.44;;;18.02;100.00
63665;BME280;49820;33.966;73.390;2022-08-19T17:08:05;78533.66;;;18.01;100.00
63665;BME280;49820;33.966;73.390;2022-08-19T17:11:29;78522.25;;;17.86;100.00
63665;BME280;49820;33.966;73.390;2022-08-19T17:14:21;78526.88;;;17.75;100.00
63665;BME280;49820;33.966;73.390;2022-08-19T17:17:09;78530.69;;;17.80;100.00
63665;BME280;49820;33.966;73.390;2022-08-19T17:20:16;78529.78;;;17.71;100.00
63665;BME280;49820;33.966;73.390;2022-08-19T17:23:06;78542.44;;;17.74;100.00
63665;BME280;49820;33.966;73.390;2022-08-19T17:26:07;78519.38;;;17.63;100.00
63665;BME280;49820;33.966;73.390;2022-08-19T17:29:12;78522.09;;;17.63;100.00
63665;BME280;49820;33.966;73.390;2022-08-19T17:32:03;78527.47;;;17.63;100.00
63665;BME280;49820;33.966;73.390;2022-08-19T17:34:52;78523.31;;;17.51;100.00
63665;BME280;49820;33.966;73.390;2022-08-19T17:37:57;78524.72;;;17.50;100.00
63665;BME280;49820;33.966;73.390;2022-08-19T17:40:46;78520.72;;;17.49;100.00
63665;BME280;49820;33.966;73.390;2022-08-19T17:43:34;78486.00;;;17.13;100.00
63665;BME280;49820;33.966;73.390;2022-08-19T17:46:11;78509.72;;;17.26;100.00
63665;BME280;49820;33.966;73.390;2022-08-19T17:49:07;78518.06;;;17.34;100.00
63665;BME280;49820;33.966;73.390;2022-08-19T17:51:57;78515.94;;;17.22;100.00
63665;BME280;49820;33.966;73.390;2022-08-19T17:55:03;78507.94;;;17.20;100.00
63665;BME280;49820;33.966;73.390;2022-08-19T17:57:54;78517.44;;;17.19;100.00
63665;BME280;49820;33.966;73.390;2022-08-19T18:00:58;78514.56;;;17.23;100.00
63665;BME280;49820;33.966;73.390;2022-08-19T18:03:50;78502.28;;;17.11;100.00
63665;BME280;49820;33.966;73.390;2022-08-19T18:06:38;78503.91;;;17.06;100.00
63665;BME280;49820;33.966;73.390;2022-08-19T18:09:39;78507.91;;;17.07;100.00
63665;BME280;49820;33.966;73.390;2022-08-19T18:12:44;78510.38;;;17.11;100.00
63665;BME280;49820;33.966;73.390;2022-08-19T18:15:48;78492.50;;;16.91;100.00
63665;BME280;49820;33.966;73.390;2022-08-19T18:18:39;78492.28;;;16.95;100.00
63665;BME280;49820;33.966;73.390;2022-08-19T18:21:25;78517.22;;;17.10;100.00
63665;BME280;49820;33.966;73.390;2022-08-19T18:24:39;78502.03;;;17.03;100.00
63665;BME280;49820;33.966;73.390;2022-08-19T18:27:32;78512.00;;;17.06;100.00
63665;BME280;49820;33.966;73.390;2022-08-19T18:30:38;78503.72;;;16.96;100.00
63665;BME280;49820;33.966;73.390;2022-08-19T18:33:49;78507.81;;;16.95;100.00
63665;BME280;49820;33.966;73.390;2022-08-19T18:36:42;78477.44;;;16.82;100.00
63665;BME280;49820;33.966;73.390;2022-08-19T18:39:46;78497.13;;;16.93;100.00
63665;BME280;49820;33.966;73.390;2022-08-19T18:42:54;78499.44;;;17.01;100.00
63665;BME280;49820;33.966;73.390;2022-08-19T18:46:17;78484.94;;;16.94;100.00
63665;BME280;49820;33.966;73.390;2022-08-19T18:49:40;78492.53;;;17.04;100.00
63665;BME280;49820;33.966;73.390;2022-08-19T18:52:31;78499.25;;;17.05;100.00
63665;BME280;49820;33.966;73.390;2022-08-19T18:55:57;78491.16;;;17.05;100.00
63665;BME280;49820;33.966;73.390;2022-08-19T18:59:27;78489.84;;;17.04;100.00
63665;BME280;49820;33.966;73.390;2022-08-19T19:02:50;78477.03;;;16.90;100.00
63665;BME280;49820;33.966;73.390;2022-08-19T19:06:24;78498.81;;;17.00;100.00
63665;BME280;49820;33.966;73.390;2022-08-19T19:09:18;78491.53;;;16.97;100.00
63665;BME280;49820;33.966;73.390;2022-08-19T19:12:24;78481.50;;;16.95;100.00
63665;BME280;49820;33.966;73.390;2022-08-19T19:14:57;78471.75;;;16.88;100.00
63665;BME280;49820;33.966;73.390;2022-08-19T19:17:46;78484.75;;;16.98;100.00
63665;BME280;49820;33.966;73.390;2022-08-19T19:24:01;78454.28;;;16.72;100.00
63665;BME280;49820;33.966;73.390;2022-08-19T19:26:51;78479.09;;;16.89;100.00
63665;BME280;49820;33.966;73.390;2022-08-19T19:29:55;78484.09;;;16.97;100.00
63665;BME280;49820;33.966;73.390;2022-08-19T19:33:00;78459.41;;;16.78;100.00
63665;BME280;49820;33.966;73.390;2022-08-19T19:36:05;78496.84;;;16.99;100.00
63665;BME280;49820;33.966;73.390;2022-08-19T19:39:09;78483.91;;;17.01;100.00
63665;BME280;49820;33.966;73.390;2022-08-19T19:42:18;78483.53;;;16.95;100.00
63665;BME280;49820;33.966;73.390;2022-08-19T19:45:23;78474.34;;;16.90;100.00
63665;BME280;49820;33.966;73.390;2022-08-19T19:48:27;78484.94;;;16.94;100.00
63665;BME280;49820;33.966;73.390;2022-08-19T19:51:32;78483.25;;;17.01;100.00
63665;BME280;49820;33.966;73.390;2022-08-19T19:54:23;78490.06;;;17.00;100.00
63665;BME280;49820;33.966;73.390;2022-08-19T19:57:11;78480.75;;;16.97;100.00
63665;BME280;49820;33.966;73.390;2022-08-19T20:00:16;78488.19;;;16.96;100.00
63665;BME280;49820;33.966;73.390;2022-08-19T20:03:21;78490.88;;;16.96;100.00
63665;BME280;49820;33.966;73.390;2022-08-19T20:06:26;78486.06;;;16.99;100.00
63665;BME280;49820;33.966;73.390;2022-08-19T20:09:31;78482.13;;;16.96;100.00
63665;BME280;49820;33.966;73.390;2022-08-19T20:12:35;78484.19;;;16.95;100.00
63665;BME280;49820;33.966;73.390;2022-08-19T20:15:42;78475.00;;;16.90;100.00
63665;BME280;49820;33.966;73.390;2022-08-19T20:18:30;78474.34;;;16.90;100.00
63665;BME280;49820;33.966;73.390;2022-08-19T20:21:35;78478.25;;;16.93;100.00
63665;BME280;49820;33.966;73.390;2022-08-19T20:24:36;78476.69;;;16.83;100.00
63665;BME280;49820;33.966;73.390;2022-08-19T20:27:26;78455.31;;;16.64;100.00
63665;BME280;49820;33.966;73.390;2022-08-19T20:30:30;78468.91;;;16.77;100.00
63665;BME280;49820;33.966;73.390;2022-08-19T20:33:01;78484.56;;;16.87;100.00
63665;BME280;49820;33.966;73.390;2022-08-19T20:35:53;78483.84;;;16.89;100.00
63665;BME280;49820;33.966;73.390;2022-08-19T20:38:58;78477.59;;;16.92;100.00
63665;BME280;49820;33.966;73.390;2022-08-19T20:42:02;78463.38;;;16.94;100.00
63665;BME280;49820;33.966;73.390;2022-08-19T20:45:09;78462.59;;;16.95;100.00
63665;BME280;49820;33.966;73.390;2022-08-19T20:48:14;78451.31;;;16.78;100.00
63665;BME280;49820;33.966;73.390;2022-08-19T20:51:20;78469.16;;;16.86;100.00
63665;BME280;49820;33.966;73.390;2022-08-19T20:53:52;78456.16;;;16.75;100.00
63665;BME280;49820;33.966;73.390;2022-08-19T20:56:56;78468.50;;;16.85;100.00
63665;BME280;49820;33.966;73.390;2022-08-19T20:59:51;78463.63;;;16.88;100.00
63665;BME280;49820;33.966;73.390;2022-08-19T21:02:56;78458.38;;;16.86;100.00
63665;BME280;49820;33.966;73.390;2022-08-19T21:06:00;78468.28;;;16.89;100.00
63665;BME280;49820;33.966;73.390;2022-08-19T21:09:05;78462.81;;;16.91;100.00
63665;BME280;49820;33.966;73.390;2022-08-19T21:12:16;78469.28;;;16.96;100.00
63665;BME280;49820;33.966;73.390;2022-08-19T21:15:22;78472.75;;;16.95;100.00
63665;BME280;49820;33.966;73.390;2022-08-19T21:18:27;78476.47;;;16.87;100.00
63665;BME280;49820;33.966;73.390;2022-08-19T21:21:31;78461.84;;;16.69;100.00
63665;BME280;49820;33.966;73.390;2022-08-19T21:24:56;78466.47;;;16.71;100.00
63665;BME280;49820;33.966;73.390;2022-08-19T21:27:46;78453.72;;;16.55;100.00
63665;BME280;49820;33.966;73.390;2022-08-19T21:30:34;78463.25;;;16.54;100.00
63665;BME280;49820;33.966;73.390;2022-08-19T21:33:04;78464.53;;;16.55;100.00
63665;BME280;49820;33.966;73.390;2022-08-19T21:36:09;78469.38;;;16.52;100.00
63665;BME280;49820;33.966;73.390;2022-08-19T21:38:58;78457.75;;;16.41;100.00
63665;BME280;49820;33.966;73.390;2022-08-19T21:42:02;78468.38;;;16.45;100.00
63665;BME280;49820;33.966;73.390;2022-08-19T21:45:06;78468.09;;;16.36;100.00
63665;BME280;49820;33.966;73.390;2022-08-19T21:48:10;78475.41;;;16.38;100.00
63665;BME280;49820;33.966;73.390;2022-08-19T21:51:16;78466.31;;;16.31;100.00
63665;BME280;49820;33.966;73.390;2022-08-19T21:54:21;78445.41;;;16.17;100.00
63665;BME280;49820;33.966;73.390;2022-08-19T21:57:25;78462.50;;;16.26;100.00
63665;BME280;49820;33.966;73.390;2022-08-19T22:00:31;78467.44;;;16.36;100.00
63665;BME280;49820;33.966;73.390;2022-08-19T22:03:20;78446.63;;;16.20;100.00
63665;BME280;49820;33.966;73.390;2022-08-19T22:06:26;78459.16;;;16.40;100.00
63665;BME280;49820;33.966;73.390;2022-08-19T22:09:30;78456.44;;;16.40;100.00
63665;BME280;49820;33.966;73.390;2022-08-19T22:12:36;78440.66;;;16.32;100.00
63665;BME280;49820;33.966;73.390;2022-08-19T22:15:41;78447.72;;;16.39;100.00
63665;BME280;49820;33.966;73.390;2022-08-19T22:18:47;78424.03;;;16.27;100.00
63665;BME280;49820;33.966;73.390;2022-08-19T22:21:34;78442.31;;;16.39;100.00
63665;BME280;49820;33.966;73.390;2022-08-19T22:24:40;78453.59;;;16.44;100.00
63665;BME280;49820;33.966;73.390;2022-08-19T22:27:44;78449.88;;;16.37;100.00
63665;BME280;49820;33.966;73.390;2022-08-19T22:30:17;78435.00;;;16.23;100.00
63665;BME280;49820;33.966;73.390;2022-08-19T22:33:09;78442.69;;;16.31;100.00
63665;BME280;49820;33.966;73.390;2022-08-19T22:36:15;78435.56;;;16.26;100.00
63665;BME280;49820;33.966;73.390;2022-08-19T22:39:38;78432.66;;;16.30;100.00
63665;BME280;49820;33.966;73.390;2022-08-19T22:42:25;78429.97;;;16.30;100.00
63665;BME280;49820;33.966;73.390;2022-08-19T22:45:30;78442.22;;;16.41;100.00
63665;BME280;49820;33.966;73.390;2022-08-19T22:48:36;78435.63;;;16.38;100.00
63665;BME280;49820;33.966;73.390;2022-08-19T22:51:40;78422.66;;;16.28;100.00
63665;BME280;49820;33.966;73.390;2022-08-19T22:54:49;78437.78;;;16.36;100.00
63665;BME280;49820;33.966;73.390;2022-08-19T22:57:54;78427.56;;;16.24;100.00
63665;BME280;49820;33.966;73.390;2022-08-19T23:00:40;78412.81;;;16.08;100.00
63665;BME280;49820;33.966;73.390;2022-08-19T23:03:11;78428.88;;;16.25;100.00
63665;BME280;49820;33.966;73.390;2022-08-19T23:06:15;78430.72;;;16.28;100.00
63665;BME280;49820;33.966;73.390;2022-08-19T23:09:05;78443.34;;;16.32;100.00
63665;BME280;49820;33.966;73.390;2022-08-19T23:11:43;78430.09;;;16.28;100.00
63665;BME280;49820;33.966;73.390;2022-08-19T23:14:33;78431.91;;;16.31;100.00
63665;BME280;49820;33.966;73.390;2022-08-19T23:17:40;78433.78;;;16.35;100.00
63665;BME280;49820;33.966;73.390;2022-08-19T23:20:51;78427.66;;;16.22;100.00
63665;BME280;49820;33.966;73.390;2022-08-19T23:23:41;78440.66;;;16.32;100.00
63665;BME280;49820;33.966;73.390;2022-08-19T23:26:45;78432.31;;;16.23;100.00
63665;BME280;49820;33.966;73.390;2022-08-19T23:29:50;78430.16;;;16.26;100.00
63665;BME280;49820;33.966;73.390;2022-08-19T23:33:19;78438.81;;;16.28;100.00
